sensor_id;sensor_type;location;lat;lon;timestamp;P1;durP1;ratioP1;P2;durP2;ratioP2
69894;SDS011;57172;52.034;5.090;2023-07-31T00:01:21;13.40;;;3.33;;
69894;SDS011;57172;52.034;5.090;2023-07-31T00:03:48;12.65;;;3.50;;
69894;SDS011;57172;52.034;5.090;2023-07-31T00:06:15;19.60;;;4.43;;
69894;SDS011;57172;52.034;5.090;2023-07-31T00:08:43;21.77;;;4.67;;
69894;SDS011;57172;52.034;5.090;2023-07-31T00:11:10;26.45;;;5.07;;
69894;SDS011;57172;52.034;5.090;2023-07-31T00:13:37;23.75;;;5.53;;
69894;SDS011;57172;52.034;5.090;2023-07-31T00:16:04;20.02;;;4.22;;
69894;SDS011;57172;52.034;5.090;2023-07-31T00:18:31;23.13;;;5.25;;
69894;SDS011;57172;52.034;5.090;2023-07-31T00:20:58;21.00;;;5.10;;
69894;SDS011;57172;52.034;5.090;2023-07-31T00:23:25;19.85;;;4.60;;
69894;SDS011;57172;52.034;5.090;2023-07-31T00:25:51;35.55;;;5.75;;
69894;SDS011;57172;52.034;5.090;2023-07-31T00:28:18;28.58;;;5.53;;
69894;SDS011;57172;52.034;5.090;2023-07-31T00:30:45;22.88;;;4.68;;
69894;SDS011;57172;52.034;5.090;2023-07-31T00:33:12;22.47;;;4.63;;
69894;SDS011;57172;52.034;5.090;2023-07-31T00:35:40;24.95;;;5.55;;
69894;SDS011;57172;52.034;5.090;2023-07-31T00:38:06;19.65;;;4.80;;
69894;SDS011;57172;52.034;5.090;2023-07-31T00:40:37;17.17;;;4.75;;
69894;SDS011;57172;52.034;5.090;2023-07-31T00:43:04;28.05;;;5.05;;
69894;SDS011;57172;52.034;5.090;2023-07-31T00:45:31;19.37;;;4.30;;
69894;SDS011;57172;52.034;5.090;2023-07-31T00:47:59;22.60;;;4.53;;
69894;SDS011;57172;52.034;5.090;2023-07-31T00:50:26;20.30;;;5.32;;
69894;SDS011;57172;52.034;5.090;2023-07-31T00:52:54;19.13;;;4.57;;
69894;SDS011;57172;52.034;5.090;2023-07-31T00:55:21;15.43;;;4.05;;
69894;SDS011;57172;52.034;5.090;2023-07-31T00:57:49;16.30;;;4.37;;
69894;SDS011;57172;52.034;5.090;2023-07-31T01:00:18;25.15;;;4.93;;
69894;SDS011;57172;52.034;5.090;2023-07-31T01:02:45;22.45;;;4.57;;
69894;SDS011;57172;52.034;5.090;2023-07-31T01:05:13;21.35;;;4.75;;
69894;SDS011;57172;52.034;5.090;2023-07-31T01:10:45;18.33;;;4.23;;
69894;SDS011;57172;52.034;5.090;2023-07-31T01:13:17;19.83;;;4.43;;
69894;SDS011;57172;52.034;5.090;2023-07-31T01:15:45;18.92;;;4.28;;
69894;SDS011;57172;52.034;5.090;2023-07-31T01:18:12;25.75;;;4.72;;
69894;SDS011;57172;52.034;5.090;2023-07-31T01:20:39;22.00;;;4.78;;
69894;SDS011;57172;52.034;5.090;2023-07-31T01:26:12;25.88;;;5.20;;
69894;SDS011;57172;52.034;5.090;2023-07-31T01:28:59;18.65;;;4.85;;
69894;SDS011;57172;52.034;5.090;2023-07-31T01:31:43;21.13;;;4.80;;
69894;SDS011;57172;52.034;5.090;2023-07-31T01:34:14;18.38;;;5.05;;
69894;SDS011;57172;52.034;5.090;2023-07-31T01:36:43;21.67;;;5.37;;
69894;SDS011;57172;52.034;5.090;2023-07-31T01:39:10;23.75;;;5.40;;
69894;SDS011;57172;52.034;5.090;2023-07-31T01:41:37;21.88;;;5.20;;
69894;SDS011;57172;52.034;5.090;2023-07-31T01:44:05;14.75;;;4.10;;
69894;SDS011;57172;52.034;5.090;2023-07-31T01:46:33;14.00;;;3.33;;
69894;SDS011;57172;52.034;5.090;2023-07-31T01:49:01;16.47;;;4.30;;
69894;SDS011;57172;52.034;5.090;2023-07-31T01:51:28;12.95;;;3.90;;
69894;SDS011;57172;52.034;5.090;2023-07-31T01:53:55;13.82;;;3.72;;
69894;SDS011;57172;52.034;5.090;2023-07-31T01:56:22;11.25;;;3.40;;
69894;SDS011;57172;52.034;5.090;2023-07-31T01:58:49;12.52;;;3.70;;
69894;SDS011;57172;52.034;5.090;2023-07-31T02:01:16;13.80;;;3.70;;
69894;SDS011;57172;52.034;5.090;2023-07-31T02:03:43;16.02;;;4.20;;
69894;SDS011;57172;52.034;5.090;2023-07-31T02:06:10;13.65;;;4.05;;
69894;SDS011;57172;52.034;5.090;2023-07-31T02:08:37;15.80;;;4.10;;
69894;SDS011;57172;52.034;5.090;2023-07-31T02:11:04;17.23;;;4.00;;
69894;SDS011;57172;52.034;5.090;2023-07-31T02:13:31;19.00;;;3.87;;
69894;SDS011;57172;52.034;5.090;2023-07-31T02:15:58;15.93;;;3.72;;
69894;SDS011;57172;52.034;5.090;2023-07-31T02:18:25;14.02;;;3.80;;
69894;SDS011;57172;52.034;5.090;2023-07-31T02:20:52;18.90;;;4.38;;
69894;SDS011;57172;52.034;5.090;2023-07-31T02:23:19;15.52;;;3.88;;
69894;SDS011;57172;52.034;5.090;2023-07-31T02:25:46;21.03;;;4.37;;
69894;SDS011;57172;52.034;5.090;2023-07-31T02:28:13;19.17;;;4.13;;
69894;SDS011;57172;52.034;5.090;2023-07-31T02:30:43;20.52;;;4.30;;
69894;SDS011;57172;52.034;5.090;2023-07-31T02:33:12;21.48;;;4.50;;
69894;SDS011;57172;52.034;5.090;2023-07-31T02:35:40;19.42;;;4.10;;
69894;SDS011;57172;52.034;5.090;2023-07-31T02:38:08;18.63;;;4.57;;
69894;SDS011;57172;52.034;5.090;2023-07-31T02:40:35;16.10;;;3.83;;
69894;SDS011;57172;52.034;5.090;2023-07-31T02:43:01;19.02;;;4.32;;
69894;SDS011;57172;52.034;5.090;2023-07-31T02:45:28;20.15;;;5.15;;
69894;SDS011;57172;52.034;5.090;2023-07-31T02:47:55;23.75;;;5.32;;
69894;SDS011;57172;52.034;5.090;2023-07-31T02:50:22;25.13;;;4.67;;
69894;SDS011;57172;52.034;5.090;2023-07-31T02:52:50;15.48;;;4.47;;
69894;SDS011;57172;52.034;5.090;2023-07-31T02:55:17;20.58;;;5.28;;
69894;SDS011;57172;52.034;5.090;2023-07-31T02:57:44;17.85;;;4.68;;
69894;SDS011;57172;52.034;5.090;2023-07-31T03:00:11;15.32;;;4.88;;
69894;SDS011;57172;52.034;5.090;2023-07-31T03:02:38;22.33;;;5.23;;
69894;SDS011;57172;52.034;5.090;2023-07-31T03:05:05;23.10;;;5.53;;
69894;SDS011;57172;52.034;5.090;2023-07-31T03:07:33;16.75;;;5.03;;
69894;SDS011;57172;52.034;5.090;2023-07-31T03:10:00;20.15;;;5.38;;
69894;SDS011;57172;52.034;5.090;2023-07-31T03:12:27;13.30;;;4.18;;
69894;SDS011;57172;52.034;5.090;2023-07-31T03:14:54;21.37;;;5.27;;
69894;SDS011;57172;52.034;5.090;2023-07-31T03:17:21;19.38;;;4.72;;
69894;SDS011;57172;52.034;5.090;2023-07-31T03:19:48;16.65;;;4.55;;
69894;SDS011;57172;52.034;5.090;2023-07-31T03:22:15;17.25;;;4.88;;
69894;SDS011;57172;52.034;5.090;2023-07-31T03:24:42;16.30;;;4.60;;
69894;SDS011;57172;52.034;5.090;2023-07-31T03:27:09;17.37;;;5.07;;
69894;SDS011;57172;52.034;5.090;2023-07-31T03:29:36;16.38;;;4.63;;
69894;SDS011;57172;52.034;5.090;2023-07-31T03:32:03;16.92;;;4.60;;
69894;SDS011;57172;52.034;5.090;2023-07-31T03:34:30;16.17;;;4.65;;
69894;SDS011;57172;52.034;5.090;2023-07-31T03:36:58;24.00;;;5.35;;
69894;SDS011;57172;52.034;5.090;2023-07-31T03:39:25;20.80;;;5.20;;
69894;SDS011;57172;52.034;5.090;2023-07-31T03:41:53;18.45;;;4.80;;
69894;SDS011;57172;52.034;5.090;2023-07-31T03:44:20;20.98;;;5.47;;
69894;SDS011;57172;52.034;5.090;2023-07-31T03:46:47;17.15;;;4.90;;
69894;SDS011;57172;52.034;5.090;2023-07-31T03:49:14;21.83;;;4.95;;
69894;SDS011;57172;52.034;5.090;2023-07-31T03:51:41;20.47;;;5.60;;
69894;SDS011;57172;52.034;5.090;2023-07-31T03:54:08;17.13;;;5.32;;
69894;SDS011;57172;52.034;5.090;2023-07-31T03:56:35;19.23;;;5.22;;
69894;SDS011;57172;52.034;5.090;2023-07-31T03:59:02;20.42;;;5.15;;
69894;SDS011;57172;52.034;5.090;2023-07-31T04:01:29;23.08;;;5.40;;
69894;SDS011;57172;52.034;5.090;2023-07-31T04:03:56;17.00;;;4.93;;
69894;SDS011;57172;52.034;5.090;2023-07-31T04:06:23;19.38;;;4.57;;
69894;SDS011;57172;52.034;5.090;2023-07-31T04:08:50;17.45;;;5.25;;
69894;SDS011;57172;52.034;5.090;2023-07-31T04:11:17;22.10;;;5.30;;
69894;SDS011;57172;52.034;5.090;2023-07-31T04:13:44;17.73;;;4.55;;
69894;SDS011;57172;52.034;5.090;2023-07-31T04:16:10;13.87;;;4.13;;
69894;SDS011;57172;52.034;5.090;2023-07-31T04:18:38;20.20;;;4.47;;
69894;SDS011;57172;52.034;5.090;2023-07-31T04:21:04;20.50;;;4.65;;
69894;SDS011;57172;52.034;5.090;2023-07-31T04:23:31;13.32;;;4.07;;
69894;SDS011;57172;52.034;5.090;2023-07-31T04:25:58;21.13;;;4.95;;
69894;SDS011;57172;52.034;5.090;2023-07-31T04:28:26;17.30;;;4.57;;
69894;SDS011;57172;52.034;5.090;2023-07-31T04:30:53;20.95;;;5.05;;
69894;SDS011;57172;52.034;5.090;2023-07-31T04:33:20;18.17;;;4.97;;
69894;SDS011;57172;52.034;5.090;2023-07-31T04:35:50;16.60;;;4.40;;
69894;SDS011;57172;52.034;5.090;2023-07-31T04:38:19;14.00;;;4.28;;
69894;SDS011;57172;52.034;5.090;2023-07-31T04:40:47;15.40;;;4.43;;
69894;SDS011;57172;52.034;5.090;2023-07-31T04:43:14;13.20;;;4.10;;
69894;SDS011;57172;52.034;5.090;2023-07-31T04:45:47;17.08;;;4.55;;
69894;SDS011;57172;52.034;5.090;2023-07-31T04:48:14;19.67;;;4.97;;
69894;SDS011;57172;52.034;5.090;2023-07-31T04:50:41;17.27;;;5.13;;
69894;SDS011;57172;52.034;5.090;2023-07-31T04:53:08;20.90;;;4.77;;
69894;SDS011;57172;52.034;5.090;2023-07-31T04:55:35;13.30;;;4.70;;
69894;SDS011;57172;52.034;5.090;2023-07-31T04:58:02;13.82;;;4.03;;
69894;SDS011;57172;52.034;5.090;2023-07-31T05:00:29;11.50;;;4.43;;
69894;SDS011;57172;52.034;5.090;2023-07-31T05:02:56;12.10;;;4.00;;
69894;SDS011;57172;52.034;5.090;2023-07-31T05:05:23;12.77;;;4.17;;
69894;SDS011;57172;52.034;5.090;2023-07-31T05:07:50;13.45;;;4.00;;
69894;SDS011;57172;52.034;5.090;2023-07-31T05:10:17;12.48;;;3.55;;
69894;SDS011;57172;52.034;5.090;2023-07-31T05:12:44;11.45;;;3.70;;
69894;SDS011;57172;52.034;5.090;2023-07-31T05:15:11;11.93;;;3.60;;
69894;SDS011;57172;52.034;5.090;2023-07-31T05:17:38;14.80;;;4.00;;
69894;SDS011;57172;52.034;5.090;2023-07-31T05:20:05;10.88;;;3.88;;
69894;SDS011;57172;52.034;5.090;2023-07-31T05:22:33;7.95;;;3.55;;
69894;SDS011;57172;52.034;5.090;2023-07-31T05:25:00;11.13;;;3.60;;
69894;SDS011;57172;52.034;5.090;2023-07-31T05:27:27;10.73;;;4.07;;
69894;SDS011;57172;52.034;5.090;2023-07-31T05:29:54;13.93;;;4.10;;
69894;SDS011;57172;52.034;5.090;2023-07-31T05:32:21;12.70;;;3.83;;
69894;SDS011;57172;52.034;5.090;2023-07-31T05:34:50;8.13;;;3.20;;
69894;SDS011;57172;52.034;5.090;2023-07-31T05:37:19;13.43;;;3.70;;
69894;SDS011;57172;52.034;5.090;2023-07-31T05:39:46;13.63;;;3.83;;
69894;SDS011;57172;52.034;5.090;2023-07-31T05:42:13;15.47;;;4.23;;
69894;SDS011;57172;52.034;5.090;2023-07-31T05:44:40;10.02;;;3.55;;
69894;SDS011;57172;52.034;5.090;2023-07-31T05:47:07;13.50;;;4.20;;
69894;SDS011;57172;52.034;5.090;2023-07-31T05:49:34;8.68;;;3.17;;
69894;SDS011;57172;52.034;5.090;2023-07-31T05:52:01;9.48;;;3.38;;
69894;SDS011;57172;52.034;5.090;2023-07-31T05:54:28;12.00;;;3.97;;
69894;SDS011;57172;52.034;5.090;2023-07-31T05:56:56;9.95;;;3.72;;
69894;SDS011;57172;52.034;5.090;2023-07-31T05:59:23;9.63;;;3.40;;
69894;SDS011;57172;52.034;5.090;2023-07-31T06:01:49;12.27;;;3.53;;
69894;SDS011;57172;52.034;5.090;2023-07-31T06:04:17;9.13;;;3.95;;
69894;SDS011;57172;52.034;5.090;2023-07-31T06:06:44;11.07;;;4.43;;
69894;SDS011;57172;52.034;5.090;2023-07-31T06:09:11;8.48;;;3.35;;
69894;SDS011;57172;52.034;5.090;2023-07-31T06:11:38;10.50;;;3.80;;
69894;SDS011;57172;52.034;5.090;2023-07-31T06:14:05;8.63;;;3.25;;
69894;SDS011;57172;52.034;5.090;2023-07-31T06:16:32;11.02;;;3.92;;
69894;SDS011;57172;52.034;5.090;2023-07-31T06:18:59;11.40;;;4.17;;
69894;SDS011;57172;52.034;5.090;2023-07-31T06:21:26;10.48;;;3.55;;
69894;SDS011;57172;52.034;5.090;2023-07-31T06:23:53;8.82;;;3.58;;
69894;SDS011;57172;52.034;5.090;2023-07-31T06:26:20;9.07;;;3.58;;
69894;SDS011;57172;52.034;5.090;2023-07-31T06:28:47;8.90;;;3.55;;
69894;SDS011;57172;52.034;5.090;2023-07-31T06:31:14;7.77;;;3.57;;
69894;SDS011;57172;52.034;5.090;2023-07-31T06:33:42;9.98;;;3.42;;
69894;SDS011;57172;52.034;5.090;2023-07-31T06:36:09;8.98;;;3.78;;
69894;SDS011;57172;52.034;5.090;2023-07-31T06:38:36;7.10;;;3.17;;
69894;SDS011;57172;52.034;5.090;2023-07-31T06:41:03;10.73;;;3.60;;
69894;SDS011;57172;52.034;5.090;2023-07-31T06:43:30;8.70;;;3.90;;
69894;SDS011;57172;52.034;5.090;2023-07-31T06:45:59;9.82;;;3.50;;
69894;SDS011;57172;52.034;5.090;2023-07-31T06:48:31;7.53;;;2.90;;
69894;SDS011;57172;52.034;5.090;2023-07-31T06:50:58;11.55;;;3.90;;
69894;SDS011;57172;52.034;5.090;2023-07-31T06:53:25;8.82;;;3.20;;
69894;SDS011;57172;52.034;5.090;2023-07-31T06:55:52;9.77;;;3.33;;
69894;SDS011;57172;52.034;5.090;2023-07-31T06:58:21;10.18;;;3.53;;
69894;SDS011;57172;52.034;5.090;2023-07-31T07:00:48;6.00;;;3.05;;
69894;SDS011;57172;52.034;5.090;2023-07-31T07:03:18;7.53;;;3.70;;
69894;SDS011;57172;52.034;5.090;2023-07-31T07:05:45;7.75;;;3.03;;
69894;SDS011;57172;52.034;5.090;2023-07-31T07:08:12;10.57;;;3.27;;
69894;SDS011;57172;52.034;5.090;2023-07-31T07:10:39;7.72;;;2.97;;
69894;SDS011;57172;52.034;5.090;2023-07-31T07:13:06;8.35;;;2.97;;
69894;SDS011;57172;52.034;5.090;2023-07-31T07:15:33;7.53;;;3.20;;
69894;SDS011;57172;52.034;5.090;2023-07-31T07:18:00;6.95;;;3.40;;
69894;SDS011;57172;52.034;5.090;2023-07-31T07:20:27;5.67;;;3.07;;
69894;SDS011;57172;52.034;5.090;2023-07-31T07:22:54;7.25;;;3.33;;
69894;SDS011;57172;52.034;5.090;2023-07-31T07:25:21;6.30;;;3.10;;
69894;SDS011;57172;52.034;5.090;2023-07-31T07:27:48;8.20;;;3.20;;
69894;SDS011;57172;52.034;5.090;2023-07-31T07:30:15;4.93;;;2.50;;
69894;SDS011;57172;52.034;5.090;2023-07-31T07:32:42;6.33;;;3.07;;
69894;SDS011;57172;52.034;5.090;2023-07-31T07:35:09;6.63;;;2.95;;
69894;SDS011;57172;52.034;5.090;2023-07-31T07:37:36;6.15;;;3.20;;
69894;SDS011;57172;52.034;5.090;2023-07-31T07:40:03;5.43;;;2.80;;
69894;SDS011;57172;52.034;5.090;2023-07-31T07:42:30;5.57;;;2.53;;
69894;SDS011;57172;52.034;5.090;2023-07-31T07:44:57;4.90;;;2.60;;
69894;SDS011;57172;52.034;5.090;2023-07-31T07:47:24;4.90;;;2.13;;
69894;SDS011;57172;52.034;5.090;2023-07-31T07:49:54;5.40;;;2.70;;
69894;SDS011;57172;52.034;5.090;2023-07-31T07:52:21;5.82;;;2.70;;
69894;SDS011;57172;52.034;5.090;2023-07-31T07:54:48;6.57;;;2.50;;
69894;SDS011;57172;52.034;5.090;2023-07-31T07:57:16;3.93;;;2.20;;
69894;SDS011;57172;52.034;5.090;2023-07-31T07:59:43;5.32;;;2.60;;
69894;SDS011;57172;52.034;5.090;2023-07-31T08:02:10;6.22;;;2.40;;
69894;SDS011;57172;52.034;5.090;2023-07-31T08:04:37;4.93;;;2.53;;
69894;SDS011;57172;52.034;5.090;2023-07-31T08:07:04;5.70;;;2.17;;
69894;SDS011;57172;52.034;5.090;2023-07-31T08:09:31;6.63;;;2.10;;
69894;SDS011;57172;52.034;5.090;2023-07-31T08:11:58;6.72;;;2.08;;
69894;SDS011;57172;52.034;5.090;2023-07-31T08:14:29;5.63;;;2.00;;
69894;SDS011;57172;52.034;5.090;2023-07-31T08:16:58;2.92;;;1.90;;
69894;SDS011;57172;52.034;5.090;2023-07-31T08:19:26;2.30;;;1.63;;
69894;SDS011;57172;52.034;5.090;2023-07-31T08:21:54;3.83;;;1.93;;
69894;SDS011;57172;52.034;5.090;2023-07-31T08:24:24;5.35;;;2.08;;
69894;SDS011;57172;52.034;5.090;2023-07-31T08:26:51;4.50;;;2.22;;
69894;SDS011;57172;52.034;5.090;2023-07-31T08:29:18;4.72;;;2.17;;
69894;SDS011;57172;52.034;5.090;2023-07-31T08:31:45;3.92;;;2.00;;
69894;SDS011;57172;52.034;5.090;2023-07-31T08:34:12;4.13;;;2.20;;
69894;SDS011;57172;52.034;5.090;2023-07-31T08:36:39;3.58;;;1.83;;
69894;SDS011;57172;52.034;5.090;2023-07-31T08:39:06;2.70;;;1.77;;
69894;SDS011;57172;52.034;5.090;2023-07-31T08:41:39;2.70;;;1.75;;
69894;SDS011;57172;52.034;5.090;2023-07-31T08:44:07;3.75;;;2.22;;
69894;SDS011;57172;52.034;5.090;2023-07-31T08:46:34;3.67;;;2.17;;
69894;SDS011;57172;52.034;5.090;2023-07-31T08:49:04;3.63;;;2.13;;
69894;SDS011;57172;52.034;5.090;2023-07-31T08:51:34;4.47;;;2.00;;
69894;SDS011;57172;52.034;5.090;2023-07-31T08:54:02;5.00;;;2.00;;
69894;SDS011;57172;52.034;5.090;2023-07-31T08:56:32;3.38;;;2.00;;
69894;SDS011;57172;52.034;5.090;2023-07-31T08:59:00;4.30;;;2.10;;
69894;SDS011;57172;52.034;5.090;2023-07-31T09:01:30;3.78;;;2.30;;
69894;SDS011;57172;52.034;5.090;2023-07-31T09:04:04;4.85;;;2.10;;
69894;SDS011;57172;52.034;5.090;2023-07-31T09:06:31;5.50;;;2.22;;
69894;SDS011;57172;52.034;5.090;2023-07-31T09:08:59;3.80;;;2.08;;
69894;SDS011;57172;52.034;5.090;2023-07-31T09:11:27;5.83;;;2.60;;
69894;SDS011;57172;52.034;5.090;2023-07-31T09:13:54;3.83;;;2.15;;
69894;SDS011;57172;52.034;5.090;2023-07-31T09:16:27;5.13;;;2.50;;
69894;SDS011;57172;52.034;5.090;2023-07-31T09:18:57;5.53;;;2.83;;
69894;SDS011;57172;52.034;5.090;2023-07-31T09:21:25;2.75;;;1.85;;
69894;SDS011;57172;52.034;5.090;2023-07-31T09:23:54;4.40;;;2.43;;
69894;SDS011;57172;52.034;5.090;2023-07-31T09:26:30;4.68;;;2.60;;
69894;SDS011;57172;52.034;5.090;2023-07-31T09:29:06;8.35;;;3.00;;
69894;SDS011;57172;52.034;5.090;2023-07-31T09:31:44;4.80;;;2.40;;
69894;SDS011;57172;52.034;5.090;2023-07-31T09:34:12;5.18;;;2.55;;
69894;SDS011;57172;52.034;5.090;2023-07-31T09:36:41;5.37;;;2.67;;
69894;SDS011;57172;52.034;5.090;2023-07-31T09:39:10;4.18;;;2.20;;
69894;SDS011;57172;52.034;5.090;2023-07-31T09:41:38;3.92;;;2.50;;
69894;SDS011;57172;52.034;5.090;2023-07-31T09:44:06;6.85;;;2.60;;
69894;SDS011;57172;52.034;5.090;2023-07-31T09:46:37;4.40;;;2.75;;
69894;SDS011;57172;52.034;5.090;2023-07-31T09:49:08;4.70;;;2.47;;
69894;SDS011;57172;52.034;5.090;2023-07-31T09:51:41;6.38;;;3.00;;
69894;SDS011;57172;52.034;5.090;2023-07-31T09:54:09;5.60;;;3.17;;
69894;SDS011;57172;52.034;5.090;2023-07-31T09:56:43;5.80;;;3.40;;
69894;SDS011;57172;52.034;5.090;2023-07-31T09:59:12;7.18;;;3.40;;
69894;SDS011;57172;52.034;5.090;2023-07-31T10:01:41;8.77;;;3.83;;
69894;SDS011;57172;52.034;5.090;2023-07-31T10:04:09;5.68;;;3.40;;
69894;SDS011;57172;52.034;5.090;2023-07-31T10:06:38;7.60;;;3.65;;
69894;SDS011;57172;52.034;5.090;2023-07-31T10:09:07;8.32;;;4.05;;
69894;SDS011;57172;52.034;5.090;2023-07-31T10:11:38;6.57;;;3.80;;
69894;SDS011;57172;52.034;5.090;2023-07-31T10:14:10;7.83;;;3.97;;
69894;SDS011;57172;52.034;5.090;2023-07-31T10:16:38;9.70;;;4.25;;
69894;SDS011;57172;52.034;5.090;2023-07-31T10:19:07;6.97;;;4.20;;
69894;SDS011;57172;52.034;5.090;2023-07-31T10:21:35;8.45;;;3.95;;
69894;SDS011;57172;52.034;5.090;2023-07-31T10:24:04;8.57;;;3.88;;
69894;SDS011;57172;52.034;5.090;2023-07-31T10:26:31;9.00;;;4.60;;
69894;SDS011;57172;52.034;5.090;2023-07-31T10:29:00;7.35;;;3.90;;
69894;SDS011;57172;52.034;5.090;2023-07-31T10:31:28;6.15;;;3.38;;
69894;SDS011;57172;52.034;5.090;2023-07-31T10:33:56;7.90;;;4.00;;
69894;SDS011;57172;52.034;5.090;2023-07-31T10:36:25;6.68;;;3.72;;
69894;SDS011;57172;52.034;5.090;2023-07-31T10:38:54;6.33;;;4.00;;
69894;SDS011;57172;52.034;5.090;2023-07-31T10:41:29;5.45;;;3.58;;
69894;SDS011;57172;52.034;5.090;2023-07-31T10:43:58;6.60;;;3.65;;
69894;SDS011;57172;52.034;5.090;2023-07-31T10:46:27;4.93;;;2.70;;
69894;SDS011;57172;52.034;5.090;2023-07-31T10:48:59;3.95;;;2.53;;
69894;SDS011;57172;52.034;5.090;2023-07-31T10:51:34;4.87;;;3.03;;
69894;SDS011;57172;52.034;5.090;2023-07-31T10:54:12;5.30;;;3.20;;
69894;SDS011;57172;52.034;5.090;2023-07-31T10:56:44;5.97;;;2.95;;
69894;SDS011;57172;52.034;5.090;2023-07-31T10:59:13;4.45;;;2.45;;
69894;SDS011;57172;52.034;5.090;2023-07-31T11:01:53;5.22;;;3.00;;
69894;SDS011;57172;52.034;5.090;2023-07-31T11:04:24;3.50;;;2.63;;
69894;SDS011;57172;52.034;5.090;2023-07-31T11:06:56;5.63;;;2.95;;
69894;SDS011;57172;52.034;5.090;2023-07-31T11:09:28;4.97;;;3.15;;
69894;SDS011;57172;52.034;5.090;2023-07-31T11:11:57;7.22;;;3.40;;
69894;SDS011;57172;52.034;5.090;2023-07-31T11:14:24;6.40;;;3.50;;
69894;SDS011;57172;52.034;5.090;2023-07-31T11:16:51;6.57;;;3.73;;
69894;SDS011;57172;52.034;5.090;2023-07-31T11:19:25;5.60;;;3.42;;
69894;SDS011;57172;52.034;5.090;2023-07-31T11:21:52;7.38;;;3.80;;
69894;SDS011;57172;52.034;5.090;2023-07-31T11:24:19;6.13;;;3.65;;
69894;SDS011;57172;52.034;5.090;2023-07-31T11:26:53;7.13;;;3.42;;
69894;SDS011;57172;52.034;5.090;2023-07-31T11:29:20;8.67;;;4.10;;
69894;SDS011;57172;52.034;5.090;2023-07-31T11:31:53;6.30;;;3.92;;
69894;SDS011;57172;52.034;5.090;2023-07-31T11:34:20;7.78;;;3.78;;
69894;SDS011;57172;52.034;5.090;2023-07-31T11:36:56;6.72;;;3.70;;
69894;SDS011;57172;52.034;5.090;2023-07-31T11:39:23;8.13;;;4.22;;
69894;SDS011;57172;52.034;5.090;2023-07-31T11:41:50;6.90;;;4.00;;
69894;SDS011;57172;52.034;5.090;2023-07-31T11:44:17;7.53;;;3.53;;
69894;SDS011;57172;52.034;5.090;2023-07-31T11:46:56;7.82;;;4.00;;
69894;SDS011;57172;52.034;5.090;2023-07-31T11:49:23;7.25;;;3.72;;
69894;SDS011;57172;52.034;5.090;2023-07-31T11:51:50;5.28;;;3.15;;
69894;SDS011;57172;52.034;5.090;2023-07-31T11:54:17;5.90;;;3.40;;
69894;SDS011;57172;52.034;5.090;2023-07-31T11:56:45;5.22;;;3.08;;
69894;SDS011;57172;52.034;5.090;2023-07-31T11:59:12;5.15;;;2.85;;
69894;SDS011;57172;52.034;5.090;2023-07-31T12:01:39;5.82;;;3.25;;
69894;SDS011;57172;52.034;5.090;2023-07-31T12:04:06;4.95;;;2.80;;
69894;SDS011;57172;52.034;5.090;2023-07-31T12:06:34;5.77;;;3.30;;
69894;SDS011;57172;52.034;5.090;2023-07-31T12:09:05;5.13;;;3.35;;
69894;SDS011;57172;52.034;5.090;2023-07-31T12:11:50;4.45;;;2.78;;
69894;SDS011;57172;52.034;5.090;2023-07-31T12:14:21;5.28;;;2.97;;
69894;SDS011;57172;52.034;5.090;2023-07-31T12:17:08;5.70;;;2.92;;
69894;SDS011;57172;52.034;5.090;2023-07-31T12:19:35;5.97;;;3.40;;
69894;SDS011;57172;52.034;5.090;2023-07-31T12:22:10;7.60;;;3.28;;
69894;SDS011;57172;52.034;5.090;2023-07-31T12:24:39;5.63;;;3.25;;
69894;SDS011;57172;52.034;5.090;2023-07-31T12:27:13;6.45;;;3.40;;
69894;SDS011;57172;52.034;5.090;2023-07-31T12:29:42;5.07;;;3.25;;
69894;SDS011;57172;52.034;5.090;2023-07-31T12:32:19;5.10;;;3.20;;
69894;SDS011;57172;52.034;5.090;2023-07-31T12:34:47;5.63;;;3.30;;
69894;SDS011;57172;52.034;5.090;2023-07-31T12:37:14;7.75;;;3.58;;
69894;SDS011;57172;52.034;5.090;2023-07-31T12:39:41;6.18;;;3.70;;
69894;SDS011;57172;52.034;5.090;2023-07-31T12:42:08;6.78;;;3.70;;
69894;SDS011;57172;52.034;5.090;2023-07-31T12:44:35;4.27;;;2.87;;
69894;SDS011;57172;52.034;5.090;2023-07-31T12:47:02;7.90;;;3.72;;
69894;SDS011;57172;52.034;5.090;2023-07-31T12:49:30;7.18;;;3.83;;
69894;SDS011;57172;52.034;5.090;2023-07-31T12:51:57;5.47;;;3.13;;
69894;SDS011;57172;52.034;5.090;2023-07-31T12:54:24;6.28;;;3.70;;
69894;SDS011;57172;52.034;5.090;2023-07-31T12:56:51;6.00;;;3.43;;
69894;SDS011;57172;52.034;5.090;2023-07-31T12:59:18;11.07;;;3.55;;
69894;SDS011;57172;52.034;5.090;2023-07-31T13:01:45;7.22;;;3.83;;
69894;SDS011;57172;52.034;5.090;2023-07-31T13:04:12;6.85;;;3.63;;
69894;SDS011;57172;52.034;5.090;2023-07-31T13:06:40;5.35;;;2.88;;
69894;SDS011;57172;52.034;5.090;2023-07-31T13:09:07;5.47;;;3.37;;
69894;SDS011;57172;52.034;5.090;2023-07-31T13:11:35;5.45;;;3.00;;
69894;SDS011;57172;52.034;5.090;2023-07-31T13:14:02;4.82;;;2.60;;
69894;SDS011;57172;52.034;5.090;2023-07-31T13:16:29;4.43;;;2.47;;
69894;SDS011;57172;52.034;5.090;2023-07-31T13:18:56;4.63;;;2.53;;
69894;SDS011;57172;52.034;5.090;2023-07-31T13:21:23;4.50;;;2.23;;
69894;SDS011;57172;52.034;5.090;2023-07-31T13:23:50;5.05;;;2.70;;
69894;SDS011;57172;52.034;5.090;2023-07-31T13:26:17;6.18;;;2.70;;
69894;SDS011;57172;52.034;5.090;2023-07-31T13:28:44;4.20;;;2.40;;
69894;SDS011;57172;52.034;5.090;2023-07-31T13:31:11;6.45;;;2.60;;
69894;SDS011;57172;52.034;5.090;2023-07-31T13:33:39;5.50;;;2.67;;
69894;SDS011;57172;52.034;5.090;2023-07-31T13:36:09;4.80;;;2.63;;
69894;SDS011;57172;52.034;5.090;2023-07-31T13:38:37;4.90;;;2.40;;
69894;SDS011;57172;52.034;5.090;2023-07-31T13:41:04;3.72;;;2.30;;
69894;SDS011;57172;52.034;5.090;2023-07-31T13:43:32;3.78;;;2.10;;
69894;SDS011;57172;52.034;5.090;2023-07-31T13:45:59;3.77;;;2.37;;
69894;SDS011;57172;52.034;5.090;2023-07-31T13:48:34;3.97;;;2.45;;
69894;SDS011;57172;52.034;5.090;2023-07-31T13:51:02;4.88;;;2.95;;
69894;SDS011;57172;52.034;5.090;2023-07-31T13:53:29;6.00;;;3.20;;
69894;SDS011;57172;52.034;5.090;2023-07-31T13:55:57;5.28;;;3.05;;
69894;SDS011;57172;52.034;5.090;2023-07-31T13:58:24;7.00;;;2.93;;
69894;SDS011;57172;52.034;5.090;2023-07-31T14:00:51;5.18;;;3.08;;
69894;SDS011;57172;52.034;5.090;2023-07-31T14:03:18;5.00;;;2.80;;
69894;SDS011;57172;52.034;5.090;2023-07-31T14:05:45;5.32;;;2.80;;
69894;SDS011;57172;52.034;5.090;2023-07-31T14:08:12;6.68;;;2.70;;
69894;SDS011;57172;52.034;5.090;2023-07-31T14:10:39;6.10;;;2.93;;
69894;SDS011;57172;52.034;5.090;2023-07-31T14:13:06;9.77;;;4.07;;
69894;SDS011;57172;52.034;5.090;2023-07-31T14:15:33;7.75;;;5.07;;
69894;SDS011;57172;52.034;5.090;2023-07-31T14:18:02;8.35;;;5.70;;
69894;SDS011;57172;52.034;5.090;2023-07-31T14:20:29;8.43;;;5.07;;
69894;SDS011;57172;52.034;5.090;2023-07-31T14:22:57;9.63;;;4.97;;
69894;SDS011;57172;52.034;5.090;2023-07-31T14:25:24;7.80;;;4.00;;
69894;SDS011;57172;52.034;5.090;2023-07-31T14:27:51;9.27;;;5.00;;
69894;SDS011;57172;52.034;5.090;2023-07-31T14:30:18;9.20;;;4.70;;
69894;SDS011;57172;52.034;5.090;2023-07-31T14:32:45;7.38;;;3.90;;
69894;SDS011;57172;52.034;5.090;2023-07-31T14:35:13;10.83;;;5.30;;
69894;SDS011;57172;52.034;5.090;2023-07-31T14:37:41;8.43;;;5.03;;
69894;SDS011;57172;52.034;5.090;2023-07-31T14:40:10;8.50;;;4.68;;
69894;SDS011;57172;52.034;5.090;2023-07-31T14:42:38;8.90;;;5.03;;
69894;SDS011;57172;52.034;5.090;2023-07-31T14:45:06;9.07;;;5.10;;
69894;SDS011;57172;52.034;5.090;2023-07-31T14:47:34;9.07;;;4.50;;
69894;SDS011;57172;52.034;5.090;2023-07-31T14:50:02;8.85;;;5.20;;
69894;SDS011;57172;52.034;5.090;2023-07-31T14:52:30;9.77;;;5.18;;
69894;SDS011;57172;52.034;5.090;2023-07-31T14:54:57;7.40;;;4.18;;